Corpus Christi, TX (78406)

1:09 PM CDT on August 26, 2016 (GMT -0500)
Corpus Christi International | | Change Station

Elev 43 ft 27.77 °N, 97.51 °W | Updated 18 minutes ago

Mostly Cloudy
Mostly Cloudy
92 °F
Feels Like 101 °F
N
7
Wind Variable Wind from NNE

Today
High -- | Low -- °F
--% Chance of Precip.
Yesterday
High -- | Low -- °F
Precip. -- in
Pressure 29.99 in
Visibility 10.0 miles
Clouds Few 3000 ft
Few 4100 ft
Scattered Clouds 6000 ft
Mostly Cloudy 25000 ft
Heat Index 101 °F
Dew Point 73 °F
Humidity 54%
Rainfall 0.00 in
Snow Depth Not available.
7:06 AM 7:56 PM
Waning Crescent, 32% visible
METAR KCRP 261751Z COR 03006KT 10SM FEW030TCU FEW041 SCT060 BKN250 33/23 A2999 RMK AO2 LTG DSNT NE AND E SLP153 FRQ LTGCG DSNT E TS DSNT E MOV NW CB DSNT NE S TCU S DSNT N NE VCSH NE SHRA DSNT E S T03330228 10333 20239 58005
Pressure 29.99 in
Visibility 10.0 miles
Clouds Few 3000 ft
Few 4100 ft
Scattered Clouds 6000 ft
Mostly Cloudy 25000 ft
Heat Index 101 °F
Dew Point 73 °F
Humidity 54%
Rainfall 0.00 in
Snow Depth Not available.
7:06 AM 7:56 PM
Waning Crescent, 32% visible
METAR KCRP 261751Z COR 03006KT 10SM FEW030TCU FEW041 SCT060 BKN250 33/23 A2999 RMK AO2 LTG DSNT NE AND E SLP153 FRQ LTGCG DSNT E TS DSNT E MOV NW CB DSNT NE S TCU S DSNT N NE VCSH NE SHRA DSNT E S T03330228 10333 20239 58005

10-Day Weather Forecast

Almanac

Astronomy

Aug. 26, 2016 Rise Set
Actual Time
Civil Twilight
Nautical Twilight
Astronomical Twilight
Moon
Length of Visible Light
Length of Day
Tomorrow will be .
, % of the Moon is Illuminated

Today's Extremes

State Highs State Lows

Community

WunderPhotos

Upload Photos

1,935,160 photos uploaded!

WunderBlog® & News

Nearby

Air Quality

  Air Quality AQ Index Pollutant
Not available.

Snow Depth

Station Depth Elevation

Earthquake Activity

City Distance Mag. Time & Date
Minimum magnitude displayed is 2.5.

Coastal Water Temperatures

Place Temperature

Stations

Nearby Weather Stations

Station Location Temp. Windchill Dew Point Humidity Wind Precip. Elev Updated Type
                   

Watches & Warnings

There are currently no watches in effect.